KBRO/BRO METAR and TAF weather

Enter ICAO airport designator
Station Type Date Time Source
KBRO METAR 2018/01/16 08:53 UTC NOAA

KBRO 160853Z AUTO 10006KT 10SM OVC070 18/13 A3026 RMK AO2 SLP245 T01780133 53002


Station Type Date Time Source
KBRO Decoded METAR 2018/01/16 08:53 UTC NOAA

BROWNSVILLE/SOUTH PADRE IS, TX, United States (KBRO) 25-54N 97-25W 5M
Jan 16, 2018 - 03:53 AM EST / 2018.01.16 0853 UTC
Wind: from the E (100 degrees) at 7 MPH (6 KT):0
Visibility: 10 mile(s):0
Sky conditions: overcast
Temperature: 64.0 F (17.8 C)
Dew Point: 55.9 F (13.3 C)
Relative Humidity: 74%
Pressure (altimeter): 30.26 in. Hg (1024 hPa)
Pressure tendency: 0.01 inches (0.2 hPa) higher than three hours ago
ob: KBRO 160853Z AUTO 10006KT 10SM OVC070 18/13 A3026 RMK AO2 SLP245 T01780133 53002
cycle: 9

Station Type Date Time Source
KBRO TAF 2018/01/16 06:22 UTC NOAA

TAF KBRO 160520Z 1606/1706 12005KT P6SM BKN070
FM161500 33020G35KT P6SM -DZRA OVC010


Example: see airport list